ニアメ の空港の天気 - METARとTAF

ニアメ/ディオリ・アマニ国際空港 ( DRRN / NIM ) - ニジェール ニアメ
飛行場実況気象(Metar)
観測時間10/25 23:00 WAT (10/25 22:00 UTC)
風向・風速北北東 1m/s
視程6000m
天気現象
なし
気温29℃
湿度27%
気圧1012hPa
METARDRRN 252200Z 03002KT 6000 NSC 29/08 Q1012 NOSIG
過去の天気等 Google飛行場航空写真 Wunderground天気予報

過去48時間のMETAR

飛行場予報(TAF)
発表時間: 10/25 18:00 WAT (10/25 17:00 UTC)
予報対象時間: 25日19時 WAT ~ 27日1時 WAT
風向・風速東北東 4m/s
視程8000m
なし
25日19時 WAT ~ 25日21時 WAT に一時的に
視程3500m
天気現象風塵
26日7時 WAT ~ 26日10時 WAT に一時的に
視程3500m
天気現象風塵
TAF DRRN 251700Z 2518/2624 06008KT 8000 NSC
TEMPO 2518/2520 3500 DU
TEMPO 2606/2609 3500 DU